Time;durP1;ratioP1;P1;durP2;ratioP2;P2;SDS_P1;SDS_P2;PMS_P1;PMS_P2;Temp;Humidity;BMP_temperature;BMP_pressure;BME280_temperature;BME280_humidity;BME280_pressure;Samples;Min_cycle;Max_cycle;Signal;HPM_P1;HPM_P2
2021/09/16 00:11:00;;;;;;;16.40;13.57;;;20.00;99.90;;;;;;5924081;23;21940;-52
2021/09/16 01:48:14;;;;;;;12.97;11.60;;;19.60;99.90;;;;;;5931904;22;20538;-51
2021/09/16 01:50:41;;;;;;;15.23;12.17;;;19.60;99.90;;;;;;5034381;28;20440;-51
2021/09/16 01:53:07;;;;;;;14.63;12.30;;;19.60;99.90;;;;;;5033978;28;20948;-51
2021/09/16 01:55:34;;;;;;;16.10;12.80;;;19.50;99.90;;;;;;5034187;28;20432;-52
2021/09/16 01:58:01;;;;;;;18.50;13.20;;;19.50;99.90;;;;;;5034703;28;20538;-55
2021/09/16 02:00:27;;;;;;;18.23;12.93;;;19.50;99.90;;;;;;5035314;28;20980;-50
2021/09/16 02:02:54;;;;;;;14.77;12.63;;;19.50;99.90;;;;;;5034889;28;20448;-52
2021/09/16 02:05:22;;;;;;;12.93;11.53;;;19.60;99.90;;;;;;5035395;28;20513;-53
2021/09/16 02:07:50;;;;;;;16.63;13.30;;;19.60;99.90;;;;;;5035733;28;20432;-51
2021/09/16 02:10:17;;;;;;;14.50;11.53;;;19.60;99.90;;;;;;5035861;28;20519;-49
2021/09/16 02:12:43;;;;;;;16.87;13.53;;;19.60;99.90;;;;;;5035639;28;20951;-54
2021/09/16 02:15:11;;;;;;;12.23;10.83;;;19.60;99.90;;;;;;5035442;28;20510;-51
2021/09/16 02:17:37;;;;;;;16.57;12.40;;;19.60;99.90;;;;;;5034944;28;20475;-54
2021/09/16 02:20:04;;;;;;;15.20;11.60;;;19.60;99.90;;;;;;5034681;28;20975;-53
2021/09/16 02:22:32;;;;;;;16.77;12.40;;;19.50;99.90;;;;;;5035325;28;20448;-51
2021/09/16 02:24:59;;;;;;;15.57;12.70;;;19.50;99.90;;;;;;5035938;28;20955;-52
2021/09/16 02:27:26;;;;;;;15.83;12.63;;;19.40;99.90;;;;;;5035678;28;20483;-53
2021/09/16 02:29:52;;;;;;;12.73;11.10;;;19.40;99.90;;;;;;5035651;28;20440;-51
2021/09/16 02:32:20;;;;;;;14.10;12.60;;;19.40;99.90;;;;;;5035775;28;20424;-51
2021/09/16 02:34:47;;;;;;;16.00;12.37;;;19.40;99.90;;;;;;5035098;28;20460;-51
2021/09/16 02:37:13;;;;;;;16.17;11.70;;;19.40;99.90;;;;;;5035301;28;20843;-54
2021/09/16 02:39:41;;;;;;;12.80;10.40;;;19.40;99.90;;;;;;5035103;28;20483;-52
2021/09/16 02:42:08;;;;;;;16.37;13.60;;;19.40;99.90;;;;;;5035483;28;20518;-54
2021/09/16 02:44:35;;;;;;;18.63;12.50;;;19.30;99.90;;;;;;5035720;28;20439;-50
2021/09/16 02:47:02;;;;;;;14.70;11.17;;;19.30;99.90;;;;;;5034911;28;20765;-50
2021/09/16 02:49:28;;;;;;;13.63;11.30;;;19.30;99.90;;;;;;5035819;28;20472;-50
2021/09/16 02:51:55;;;;;;;14.70;13.10;;;19.30;99.90;;;;;;5035223;28;20503;-50
2021/09/16 02:54:21;;;;;;;19.43;11.63;;;19.20;99.90;;;;;;5034288;28;20456;-53
2021/09/16 02:56:51;;;;;;;17.70;12.07;;;19.20;99.90;;;;;;5033671;28;20831;-50
2021/09/16 02:59:18;;;;;;;15.60;11.20;;;19.20;99.90;;;;;;5035806;28;20483;-53
2021/09/16 03:01:45;;;;;;;14.73;11.90;;;19.20;99.90;;;;;;5037650;28;20440;-52
2021/09/16 03:04:11;;;;;;;17.07;12.30;;;19.20;99.90;;;;;;5037219;28;20518;-53
2021/09/16 03:06:38;;;;;;;16.13;11.90;;;19.20;99.90;;;;;;5037509;28;20780;-52
2021/09/16 03:09:05;;;;;;;17.97;13.43;;;19.20;99.90;;;;;;5037235;28;20522;-53
2021/09/16 03:11:31;;;;;;;19.70;12.50;;;19.10;99.90;;;;;;5037175;28;20448;-47
2021/09/16 03:14:00;;;;;;;16.67;12.37;;;19.20;99.90;;;;;;5037225;28;20444;-48
2021/09/16 03:16:28;;;;;;;19.17;12.47;;;19.10;99.90;;;;;;5037156;28;20514;-47
2021/09/16 03:18:54;;;;;;;18.20;12.80;;;19.20;99.90;;;;;;5037021;28;20550;-54
2021/09/16 03:21:21;;;;;;;16.87;12.67;;;19.20;99.90;;;;;;5037327;28;20889;-53
2021/09/16 03:23:48;;;;;;;18.73;13.57;;;19.20;99.90;;;;;;5037074;28;20831;-54
2021/09/16 03:26:14;;;;;;;21.73;13.80;;;19.10;99.90;;;;;;5036830;28;20464;-50
2021/09/16 03:28:41;;;;;;;17.00;13.70;;;19.10;99.90;;;;;;5036939;28;20522;-53
2021/09/16 03:31:12;;;;;;;17.13;12.57;;;19.10;99.90;;;;;;5036430;28;20525;-54
2021/09/16 03:33:39;;;;;;;20.00;14.90;;;19.10;99.90;;;;;;5036844;28;20425;-52
2021/09/16 03:36:05;;;;;;;18.50;14.33;;;19.10;99.90;;;;;;5037064;28;20490;-52
2021/09/16 03:38:32;;;;;;;19.80;15.10;;;19.10;99.90;;;;;;5036495;28;20964;-52
2021/09/16 03:40:59;;;;;;;18.73;13.97;;;19.10;99.90;;;;;;5036697;28;20444;-54
2021/09/16 03:43:26;;;;;;;19.60;14.47;;;19.10;99.90;;;;;;5036601;28;20750;-48
2021/09/16 03:45:53;;;;;;;17.53;13.27;;;19.10;99.90;;;;;;5036480;28;20811;-51
2021/09/16 03:48:23;;;;;;;19.70;15.47;;;19.10;99.90;;;;;;5036465;28;20480;-47
2021/09/16 03:50:50;;;;;;;21.37;14.97;;;19.10;99.90;;;;;;5036546;28;20895;-52
2021/09/16 03:53:18;;;;;;;22.90;16.70;;;19.10;99.90;;;;;;5036577;28;20452;-50
2021/09/16 03:55:45;;;;;;;24.23;17.63;;;19.10;99.90;;;;;;5036588;28;20466;-53
2021/09/16 03:58:11;;;;;;;27.70;19.43;;;19.10;99.90;;;;;;5036078;28;20864;-53
2021/09/16 04:00:38;;;;;;;26.33;16.80;;;19.10;99.90;;;;;;5035963;28;20513;-49
2021/09/16 04:03:08;;;;;;;25.43;18.40;;;19.10;99.90;;;;;;5036294;28;20475;-52
2021/09/16 04:05:36;;;;;;;23.07;16.97;;;19.10;99.90;;;;;;5036187;28;20533;-51
2021/09/16 04:08:03;;;;;;;26.90;18.50;;;19.10;99.90;;;;;;5036130;28;20514;-50
2021/09/16 04:10:30;;;;;;;27.50;19.43;;;19.00;99.90;;;;;;5035403;28;20766;-48
2021/09/16 04:12:57;;;;;;;30.40;19.93;;;19.00;99.90;;;;;;5035924;28;20475;-49
2021/09/16 04:15:24;;;;;;;27.90;19.80;;;19.00;99.90;;;;;;5036199;28;20479;-53
2021/09/16 04:17:50;;;;;;;27.17;19.10;;;19.00;99.90;;;;;;5036169;28;20831;-52
2021/09/16 04:20:17;;;;;;;30.13;19.80;;;19.00;99.90;;;;;;5036066;28;20499;-51
2021/09/16 04:22:48;;;;;;;27.60;18.87;;;18.90;99.90;;;;;;5035890;28;20502;-52
2021/09/16 04:25:15;;;;;;;29.63;20.60;;;19.00;99.90;;;;;;5036041;28;20432;-50
2021/09/16 04:27:42;;;;;;;28.03;19.87;;;19.00;99.90;;;;;;5035898;28;20452;-51
2021/09/16 04:30:10;;;;;;;30.90;19.90;;;18.90;99.90;;;;;;5035748;28;20788;-53
2021/09/16 04:32:37;;;;;;;35.03;20.97;;;19.00;99.90;;;;;;5035667;28;20444;-51
2021/09/16 04:35:05;;;;;;;30.20;19.23;;;18.90;99.90;;;;;;5035756;28;20448;-49
2021/09/16 04:37:31;;;;;;;29.83;20.37;;;18.90;99.90;;;;;;5035690;28;20464;-54
2021/09/16 04:39:59;;;;;;;29.60;18.10;;;18.90;99.90;;;;;;5035326;28;20553;-48
2021/09/16 04:42:26;;;;;;;25.43;16.03;;;18.90;99.90;;;;;;5035581;28;20440;-52
2021/09/16 04:44:53;;;;;;;28.73;18.53;;;18.90;99.90;;;;;;5035583;28;20456;-51
2021/09/16 04:47:20;;;;;;;30.47;19.73;;;18.80;99.90;;;;;;5035264;28;20448;-49
2021/09/16 04:49:46;;;;;;;22.67;16.33;;;18.80;99.90;;;;;;5035149;28;20522;-53
2021/09/16 04:52:13;;;;;;;26.70;18.80;;;18.80;99.90;;;;;;5035152;28;20448;-51
2021/09/16 04:54:40;;;;;;;23.00;16.90;;;18.80;99.90;;;;;;5035294;28;20464;-51
2021/09/16 04:57:08;;;;;;;24.50;20.50;;;18.80;99.90;;;;;;5035389;28;20510;-55
2021/09/16 04:59:34;;;;;;;22.20;16.40;;;18.90;99.90;;;;;;5035004;28;20540;-53
2021/09/16 05:02:01;;;;;;;25.07;16.80;;;18.80;99.90;;;;;;5035034;28;20460;-51
2021/09/16 05:04:27;;;;;;;22.33;17.30;;;18.80;99.90;;;;;;5034962;28;20452;-53
2021/09/16 05:06:54;;;;;;;21.20;16.67;;;18.80;99.90;;;;;;5035110;28;20444;-49
2021/09/16 05:09:21;;;;;;;20.37;13.63;;;18.80;99.90;;;;;;5034755;28;20444;-50
2021/09/16 05:11:48;;;;;;;20.87;14.57;;;18.80;99.90;;;;;;5034939;28;20541;-46
2021/09/16 05:14:16;;;;;;;21.13;15.17;;;18.80;99.90;;;;;;5034955;28;20444;-48
2021/09/16 05:16:43;;;;;;;20.90;14.40;;;18.80;99.90;;;;;;5035683;28;20852;-49
2021/09/16 05:19:10;;;;;;;20.17;14.80;;;18.80;99.90;;;;;;5036537;28;20488;-54
2021/09/16 05:21:37;;;;;;;22.20;14.93;;;18.80;99.90;;;;;;5034225;28;20904;-52
2021/09/16 05:24:04;;;;;;;19.63;15.20;;;18.80;99.90;;;;;;5034497;28;20893;-48
2021/09/16 05:26:30;;;;;;;18.27;13.50;;;18.70;99.90;;;;;;5034932;28;20482;-50
2021/09/16 05:28:57;;;;;;;29.33;16.10;;;18.70;99.90;;;;;;5034919;28;20440;-52
2021/09/16 05:31:25;;;;;;;15.57;12.67;;;18.70;99.90;;;;;;5034811;28;20878;-48
2021/09/16 05:33:52;;;;;;;18.93;13.10;;;18.60;99.90;;;;;;5034876;28;20444;-51
2021/09/16 05:36:18;;;;;;;16.03;12.13;;;18.60;99.90;;;;;;5034878;28;20505;-54
2021/09/16 05:38:45;;;;;;;15.77;11.93;;;18.60;99.90;;;;;;5035175;28;20503;-53
2021/09/16 05:41:12;;;;;;;14.80;11.87;;;18.60;99.90;;;;;;5035039;28;20475;-53
2021/09/16 05:43:38;;;;;;;16.20;10.60;;;18.70;99.90;;;;;;5034692;28;20517;-54
2021/09/16 05:46:05;;;;;;;11.77;9.27;;;18.70;99.90;;;;;;5034380;28;20464;-46
2021/09/16 05:48:35;;;;;;;13.60;11.33;;;18.70;99.90;;;;;;5034339;28;20476;-48
2021/09/16 05:51:03;;;;;;;13.40;11.17;;;18.70;99.90;;;;;;5034330;28;20510;-45
2021/09/16 05:53:30;;;;;;;12.87;10.50;;;18.60;99.90;;;;;;5034317;28;20513;-54
2021/09/16 05:55:57;;;;;;;14.20;10.63;;;18.60;99.90;;;;;;5034462;28;20528;-44
2021/09/16 05:58:23;;;;;;;16.90;11.13;;;18.60;99.90;;;;;;5034080;28;20836;-44
2021/09/16 06:00:50;;;;;;;12.03;9.30;;;18.50;99.90;;;;;;5034483;28;20921;-50
2021/09/16 06:03:17;;;;;;;15.67;9.47;;;18.40;99.90;;;;;;5034157;28;20853;-51
2021/09/16 06:05:45;;;;;;;16.27;11.20;;;18.50;99.90;;;;;;5034628;28;20847;-48
2021/09/16 06:08:11;;;;;;;17.63;11.43;;;18.50;99.90;;;;;;5034334;28;20478;-51
2021/09/16 06:10:39;;;;;;;14.30;10.73;;;18.50;99.90;;;;;;5034205;28;20448;-51
2021/09/16 06:13:07;;;;;;;12.60;10.00;;;18.50;99.90;;;;;;5034276;28;20506;-48
2021/09/16 06:15:34;;;;;;;11.13;9.97;;;18.50;99.90;;;;;;5034168;28;20444;-53
2021/09/16 06:18:01;;;;;;;10.77;9.20;;;18.50;99.90;;;;;;5034258;28;20484;-50
2021/09/16 06:20:27;;;;;;;19.37;9.57;;;18.50;99.90;;;;;;5035794;28;20541;-48
2021/09/16 06:22:55;;;;;;;9.93;7.83;;;18.50;99.90;;;;;;5035881;28;20443;-50
2021/09/16 06:25:22;;;;;;;8.20;7.33;;;18.50;99.90;;;;;;5035832;28;20518;-53
2021/09/16 06:27:48;;;;;;;11.53;7.60;;;18.50;99.90;;;;;;5036072;28;20908;-49
2021/09/16 06:30:15;;;;;;;8.87;7.20;;;18.60;99.90;;;;;;5036044;28;20452;-50
2021/09/16 06:32:45;;;;;;;7.30;6.03;;;18.60;99.90;;;;;;5034691;28;20502;-47
2021/09/16 06:35:12;;;;;;;9.90;6.43;;;18.70;99.90;;;;;;5039430;28;20456;-49
2021/09/16 06:37:39;;;;;;;11.30;7.87;;;18.80;99.90;;;;;;5040404;28;20539;-50
2021/09/16 06:40:09;;;;;;;8.73;7.10;;;18.90;99.90;;;;;;5022655;28;20820;-53
2021/09/16 06:42:37;;;;;;;8.00;6.20;;;18.90;99.90;;;;;;5463202;22;20527;-51
2021/09/16 06:45:04;;;;;;;11.23;6.30;;;18.90;99.90;;;;;;5041586;28;20559;-53
2021/09/16 06:47:31;;;;;;;7.40;6.30;;;18.80;99.90;;;;;;5042010;28;20444;-47
2021/09/16 06:49:58;;;;;;;7.87;5.97;;;18.80;99.90;;;;;;5042059;28;20452;-46
2021/09/16 06:52:24;;;;;;;7.77;5.73;;;18.80;99.90;;;;;;5040399;28;20497;-51
2021/09/16 06:54:52;;;;;;;10.23;6.43;;;18.70;99.90;;;;;;5038666;28;20440;-52
2021/09/16 06:57:20;;;;;;;12.13;6.57;;;18.70;99.90;;;;;;5039655;28;20444;-50
2021/09/16 06:59:47;;;;;;;6.70;5.40;;;18.70;99.90;;;;;;5041722;28;21010;-47
2021/09/16 07:02:14;;;;;;;7.17;6.47;;;18.70;99.90;;;;;;5044476;28;20436;-45
2021/09/16 07:04:40;;;;;;;6.53;5.23;;;18.60;99.90;;;;;;5043750;28;20447;-50
2021/09/16 07:07:08;;;;;;;9.03;6.50;;;18.70;99.90;;;;;;5045386;28;20440;-50
2021/09/16 07:09:35;;;;;;;8.00;6.03;;;18.60;99.90;;;;;;5038949;28;20464;-53
2021/09/16 07:12:01;;;;;;;8.40;6.43;;;18.70;99.90;;;;;;5024508;28;20576;-53
2021/09/16 07:14:30;;;;;;;9.00;5.83;;;18.60;99.90;;;;;;5021372;28;20453;-50
2021/09/16 07:16:58;;;;;;;8.13;5.40;;;18.60;99.90;;;;;;5039978;28;20514;-45
2021/09/16 07:19:25;;;;;;;6.90;4.63;;;18.60;99.90;;;;;;5037350;28;20494;-48
2021/09/16 07:21:52;;;;;;;6.13;3.83;;;18.60;99.90;;;;;;5036801;28;20848;-49
2021/09/16 07:24:20;;;;;;;6.33;4.50;;;18.50;99.90;;;;;;5039695;28;20448;-45
2021/09/16 07:26:50;;;;;;;8.27;4.57;;;18.50;99.90;;;;;;5027766;28;20445;-50
2021/09/16 07:29:17;;;;;;;6.50;4.53;;;18.50;99.90;;;;;;5017881;28;20453;-51
2021/09/16 07:31:46;;;;;;;5.87;4.60;;;18.50;99.90;;;;;;5037526;28;20448;-44
2021/09/16 07:34:14;;;;;;;4.70;3.50;;;18.60;99.90;;;;;;5037667;28;20456;-45
2021/09/16 07:36:43;;;;;;;5.53;4.20;;;18.70;99.90;;;;;;5037403;28;20444;-53
2021/09/16 07:39:10;;;;;;;7.40;3.97;;;18.70;99.90;;;;;;5037590;28;20495;-45
2021/09/16 07:41:37;;;;;;;5.27;3.50;;;18.80;99.90;;;;;;5038477;28;20463;-43
2021/09/16 07:44:05;;;;;;;7.10;4.07;;;19.00;99.90;;;;;;5038347;28;20825;-53
2021/09/16 07:46:32;;;;;;;4.47;3.80;;;19.10;99.90;;;;;;5039388;28;20449;-50
2021/09/16 07:49:00;;;;;;;5.80;4.00;;;19.10;99.90;;;;;;5053637;28;20420;-46
2021/09/16 07:51:27;;;;;;;7.23;3.50;;;19.20;99.90;;;;;;5058539;28;20516;-46
2021/09/16 07:53:54;;;;;;;4.73;4.00;;;19.20;99.90;;;;;;5041547;28;20433;-49
2021/09/16 07:56:21;;;;;;;9.90;4.57;;;19.20;99.90;;;;;;5037414;28;20816;-48
2021/09/16 07:58:48;;;;;;;4.67;3.20;;;19.30;99.90;;;;;;5056138;28;20447;-45
2021/09/16 08:01:15;;;;;;;4.57;4.03;;;19.40;99.90;;;;;;5040652;28;20479;-50
2021/09/16 08:03:42;;;;;;;7.03;4.80;;;19.40;99.90;;;;;;5043746;28;20877;-45
2021/09/16 08:06:13;;;;;;;7.33;3.47;;;19.50;99.90;;;;;;5049449;28;20436;-45
2021/09/16 08:08:40;;;;;;;3.80;3.00;;;19.60;99.90;;;;;;5044739;28;20432;-53
2021/09/16 08:11:07;;;;;;;3.20;2.90;;;19.90;99.90;;;;;;5046417;28;20432;-47
2021/09/16 08:13:34;;;;;;;4.20;3.30;;;20.40;99.90;;;;;;5049766;28;20451;-50
2021/09/16 08:16:00;;;;;;;2.80;2.50;;;20.80;99.90;;;;;;5035053;28;20551;-48
2021/09/16 08:18:27;;;;;;;3.20;2.90;;;21.10;99.90;;;;;;5038750;28;20451;-50
2021/09/16 08:20:54;;;;;;;4.63;2.67;;;21.00;99.90;;;;;;5039525;28;20484;-49
2021/09/16 08:23:23;;;;;;;8.13;2.67;;;20.90;99.90;;;;;;5033341;28;20444;-50
2021/09/16 08:25:50;;;;;;;4.00;2.73;;;20.70;99.90;;;;;;5036306;28;20456;-47
2021/09/16 08:28:18;;;;;;;2.73;2.20;;;20.50;99.90;;;;;;5038665;28;20788;-50
2021/09/16 08:30:45;;;;;;;3.80;2.10;;;20.30;99.90;;;;;;5038374;28;20440;-50
2021/09/16 08:33:12;;;;;;;2.50;2.23;;;20.20;99.90;;;;;;5035410;28;20491;-52
2021/09/16 08:35:39;;;;;;;2.47;2.23;;;20.10;99.90;;;;;;5035973;28;20436;-45
2021/09/16 08:38:06;;;;;;;2.67;1.87;;;20.00;99.90;;;;;;5036420;28;20925;-48
2021/09/16 08:40:35;;;;;;;4.33;2.30;;;20.10;99.90;;;;;;5035328;28;20491;-53
2021/09/16 08:43:04;;;;;;;3.40;2.53;;;20.20;99.90;;;;;;5031581;28;20463;-52
2021/09/16 08:45:31;;;;;;;2.37;2.17;;;20.30;99.90;;;;;;5036192;28;20777;-50
2021/09/16 08:47:58;;;;;;;2.47;2.07;;;20.20;99.90;;;;;;5035913;28;20509;-49
2021/09/16 08:50:27;;;;;;;2.90;2.60;;;20.30;99.90;;;;;;5036015;28;20535;-50
2021/09/16 08:52:54;;;;;;;3.03;2.73;;;20.30;99.90;;;;;;5033148;28;20485;-50
2021/09/16 08:55:23;;;;;;;2.70;2.30;;;20.80;99.90;;;;;;5030236;28;20444;-51
2021/09/16 08:57:55;;;;;;;4.30;1.83;;;21.20;99.90;;;;;;5035689;28;20449;-49
2021/09/16 09:03:14;;;;;;;3.33;2.20;;;21.40;99.90;;;;;;5379276;22;20499;-48
2021/09/16 09:05:42;;;;;;;2.13;1.87;;;21.20;99.90;;;;;;5054087;28;20444;-51
2021/09/16 09:08:09;;;;;;;3.70;2.10;;;21.00;99.90;;;;;;5047260;28;20464;-51
2021/09/16 09:10:42;;;;;;;3.70;2.10;;;20.60;99.90;;;;;;5067602;28;20459;-47
2021/09/16 09:13:13;;;;;;;2.50;2.30;;;20.50;99.90;;;;;;5056689;28;20454;-52
2021/09/16 09:15:42;;;;;;;6.90;2.30;;;20.30;99.90;;;;;;5067222;28;20533;-48
2021/09/16 09:18:11;;;;;;;2.60;2.10;;;20.30;99.90;;;;;;5068595;28;20431;-49
2021/09/16 09:23:25;;;;;;;2.40;1.47;;;20.30;99.90;;;;;;5319520;22;20465;-54
2021/09/16 09:25:52;;;;;;;3.07;2.40;;;20.40;99.90;;;;;;5041941;28;20438;-49
2021/09/16 09:28:41;;;;;;;2.40;2.20;;;20.70;99.90;;;;;;5041081;28;20436;-49
2021/09/16 09:31:15;;;;;;;2.03;1.83;;;20.80;99.90;;;;;;5039000;28;20478;-50
2021/09/16 09:33:45;;;;;;;2.00;1.80;;;20.80;99.90;;;;;;5046812;28;20440;-51
2021/09/16 09:36:14;;;;;;;3.20;1.97;;;20.90;99.90;;;;;;5040629;28;20762;-55
2021/09/16 09:38:52;;;;;;;1.60;1.50;;;20.80;99.90;;;;;;5040958;28;20912;-50
2021/09/16 09:41:28;;;;;;;2.87;1.57;;;20.90;99.90;;;;;;5039786;28;20456;-53
2021/09/16 09:44:08;;;;;;;3.03;2.30;;;20.60;99.90;;;;;;5039791;28;20455;-53
2021/09/16 09:46:41;;;;;;;3.50;1.67;;;20.50;99.90;;;;;;5040689;28;20455;-54
2021/09/16 09:49:09;;;;;;;2.77;1.60;;;20.30;99.90;;;;;;5040731;28;20475;-49
2021/09/16 09:51:38;;;;;;;5.63;2.00;;;20.10;99.90;;;;;;5040658;28;20440;-49
2021/09/16 09:54:24;;;;;;;1.40;1.20;;;20.00;99.90;;;;;;5035663;28;20436;-48
2021/09/16 09:57:11;;;;;;;2.13;1.10;;;19.90;99.90;;;;;;5030294;28;20441;-51
2021/09/16 09:59:54;;;;;;;1.97;1.00;;;20.50;99.90;;;;;;5014908;28;20507;-49
2021/09/16 10:02:22;;;;;;;3.60;2.10;;;21.80;99.90;;;;;;5014878;28;20955;-54
2021/09/16 10:04:49;;;;;;;4.60;2.90;;;23.40;99.90;;;;;;5014423;28;20464;-46
2021/09/16 10:07:37;;;;;;;3.33;1.43;;;24.50;99.90;;;;;;5014341;28;20449;-49
2021/09/16 10:10:08;;;;;;;2.93;1.30;;;24.30;99.90;;;;;;5027588;28;20436;-54
2021/09/16 10:12:35;;;;;;;1.87;1.60;;;23.70;99.90;;;;;;5034482;28;20448;-46
2021/09/16 10:15:04;;;;;;;2.17;1.27;;;23.00;99.90;;;;;;5033735;28;20966;-51
2021/09/16 10:17:31;;;;;;;1.67;1.40;;;22.30;99.90;;;;;;5034439;28;20436;-52
2021/09/16 10:19:59;;;;;;;2.60;1.43;;;21.70;99.90;;;;;;5036971;28;20614;-52
2021/09/16 10:22:26;;;;;;;2.73;1.70;;;21.40;99.90;;;;;;5037254;28;20789;-47
2021/09/16 10:24:54;;;;;;;3.23;2.40;;;21.20;99.90;;;;;;5036089;28;20527;-53
2021/09/16 10:27:43;;;;;;;2.80;1.97;;;21.10;99.90;;;;;;5035384;28;20455;-52
2021/09/16 10:30:44;;;;;;;1.97;1.50;;;21.20;99.90;;;;;;5032317;28;20440;-51
2021/09/16 10:33:13;;;;;;;1.57;1.27;;;21.00;99.90;;;;;;5035958;28;20443;-54
2021/09/16 10:35:42;;;;;;;3.37;1.70;;;21.00;99.90;;;;;;5035934;28;20447;-53
2021/09/16 10:38:22;;;;;;;2.00;1.77;;;20.90;99.90;;;;;;5034793;28;20502;-54
2021/09/16 10:40:49;;;;;;;1.60;1.03;;;20.70;99.90;;;;;;5037404;28;20813;-54
2021/09/16 10:43:24;;;;;;;3.70;1.77;;;20.60;99.90;;;;;;5038454;28;20508;-52
2021/09/16 10:45:52;;;;;;;1.70;1.30;;;20.50;99.90;;;;;;5032851;28;20924;-51
2021/09/16 10:48:32;;;;;;;2.90;1.30;;;20.30;99.90;;;;;;5035752;28;20444;-52
2021/09/16 10:51:03;;;;;;;2.03;1.53;;;20.20;99.90;;;;;;5033354;28;20924;-47
2021/09/16 10:53:36;;;;;;;2.00;1.73;;;20.20;99.90;;;;;;5035603;28;20448;-54
2021/09/16 10:56:05;;;;;;;5.17;1.87;;;20.10;99.90;;;;;;5035440;28;20467;-51
2021/09/16 10:58:32;;;;;;;4.50;2.30;;;20.00;99.90;;;;;;5034657;28;20521;-50
2021/09/16 11:01:00;;;;;;;3.30;2.03;;;20.00;99.90;;;;;;5035334;28;20479;-49
2021/09/16 11:03:27;;;;;;;2.07;1.40;;;20.00;99.90;;;;;;5034427;28;20471;-50
2021/09/16 11:05:58;;;;;;;2.33;1.20;;;20.10;99.90;;;;;;5034413;28;20448;-52
2021/09/16 11:08:58;;;;;;;5.13;2.70;;;20.20;99.90;;;;;;5033570;28;20514;-52
2021/09/16 11:11:24;;;;;;;2.10;1.43;;;20.20;99.90;;;;;;5020244;28;20518;-54
2021/09/16 11:13:57;;;;;;;1.83;1.30;;;20.10;99.90;;;;;;5034723;28;20444;-51
2021/09/16 11:16:27;;;;;;;1.87;1.30;;;20.10;99.90;;;;;;5036265;28;20440;-49
2021/09/16 11:19:05;;;;;;;3.90;1.30;;;20.10;99.90;;;;;;5035282;28;20464;-55
2021/09/16 11:21:32;;;;;;;4.10;1.20;;;20.10;99.90;;;;;;5038990;28;20475;-50
2021/09/16 11:23:58;;;;;;;4.70;1.47;;;20.20;99.90;;;;;;5038875;28;20432;-48
2021/09/16 11:26:27;;;;;;;2.37;1.40;;;20.20;99.90;;;;;;5038497;28;20514;-50
2021/09/16 11:29:03;;;;;;;2.10;1.57;;;20.20;99.90;;;;;;5038881;28;20448;-48
2021/09/16 11:31:31;;;;;;;2.40;1.50;;;20.20;99.90;;;;;;5037298;28;20456;-52
2021/09/16 11:34:08;;;;;;;3.57;1.33;;;20.30;99.90;;;;;;5038841;28;20924;-48
2021/09/16 11:36:34;;;;;;;3.20;2.10;;;20.30;99.90;;;;;;5038931;28;20467;-50
2021/09/16 11:39:14;;;;;;;1.63;1.30;;;20.40;99.90;;;;;;5038844;28;20510;-49
2021/09/16 11:41:40;;;;;;;2.57;1.87;;;20.30;99.90;;;;;;5038769;28;20638;-51
2021/09/16 11:44:09;;;;;;;1.67;1.43;;;20.30;99.90;;;;;;5038515;28;20513;-46
2021/09/16 11:46:38;;;;;;;1.63;1.20;;;20.30;99.90;;;;;;5038605;28;20921;-52
2021/09/16 11:49:05;;;;;;;2.20;1.30;;;20.20;99.90;;;;;;5038254;28;20460;-45
2021/09/16 11:51:31;;;;;;;4.10;1.17;;;19.90;99.90;;;;;;5038602;28;20447;-50
2021/09/16 11:54:09;;;;;;;4.90;1.50;;;19.80;99.90;;;;;;5039405;28;20513;-52
2021/09/16 11:56:36;;;;;;;1.83;1.20;;;19.60;99.90;;;;;;5040586;28;20540;-47
2021/09/16 11:59:08;;;;;;;5.00;1.53;;;19.60;99.90;;;;;;5040579;28;20451;-49
2021/09/16 12:01:39;;;;;;;1.23;1.00;;;19.60;99.90;;;;;;5040040;28;20568;-53
2021/09/16 12:04:05;;;;;;;2.37;1.60;;;19.50;99.90;;;;;;5038612;28;20455;-52
2021/09/16 12:06:35;;;;;;;1.80;1.00;;;19.50;99.90;;;;;;5038749;28;20456;-50
2021/09/16 12:09:04;;;;;;;1.30;0.90;;;19.40;99.90;;;;;;5039982;28;20444;-50
2021/09/16 12:11:31;;;;;;;1.80;1.10;;;19.40;99.90;;;;;;5039686;28;20547;-53
2021/09/16 12:14:00;;;;;;;3.67;0.97;;;19.20;99.90;;;;;;5040337;28;20455;-54
2021/09/16 12:16:29;;;;;;;2.13;1.07;;;19.10;99.90;;;;;;5040060;28;20482;-54
2021/09/16 12:18:59;;;;;;;5.37;1.90;;;19.00;99.90;;;;;;5040345;28;20448;-55
2021/09/16 12:21:30;;;;;;;3.40;1.43;;;19.00;99.90;;;;;;5040267;28;20486;-53
2021/09/16 12:23:59;;;;;;;1.37;0.90;;;19.00;99.90;;;;;;5040497;28;20440;-55
2021/09/16 12:26:28;;;;;;;3.40;1.10;;;19.20;99.90;;;;;;5039830;28;20495;-54
2021/09/16 12:28:57;;;;;;;2.27;1.83;;;19.30;99.90;;;;;;5040323;28;20448;-48
2021/09/16 12:31:26;;;;;;;4.23;2.10;;;19.50;99.90;;;;;;5039246;28;20904;-48
2021/09/16 12:33:59;;;;;;;3.10;1.63;;;19.60;99.90;;;;;;5039092;28;20476;-53
2021/09/16 12:36:26;;;;;;;1.40;1.07;;;19.70;99.90;;;;;;5039850;28;20441;-55
2021/09/16 12:38:58;;;;;;;1.30;1.13;;;19.80;99.90;;;;;;5038862;28;20456;-52
2021/09/16 12:41:34;;;;;;;1.60;1.13;;;19.90;99.90;;;;;;5038191;28;20484;-53
2021/09/16 12:44:05;;;;;;;2.27;1.50;;;19.90;99.90;;;;;;5037664;28;20452;-54
2021/09/16 12:46:56;;;;;;;3.10;1.60;;;20.00;99.90;;;;;;5037826;28;20452;-52
2021/09/16 12:49:36;;;;;;;3.40;1.07;;;20.00;99.90;;;;;;5037100;28;20887;-55
2021/09/16 12:52:07;;;;;;;2.00;1.10;;;20.00;99.90;;;;;;5038051;28;20448;-52
2021/09/16 12:54:35;;;;;;;3.30;0.97;;;20.00;99.90;;;;;;5037825;28;20463;-49
2021/09/16 12:57:04;;;;;;;2.90;1.17;;;20.00;99.90;;;;;;5037955;28;20468;-51
2021/09/16 12:59:32;;;;;;;3.23;0.87;;;20.10;99.90;;;;;;5037621;28;20746;-48
2021/09/16 13:02:16;;;;;;;11.60;9.20;;;20.20;99.90;;;;;;5038662;28;20480;-55
2021/09/16 13:05:03;;;;;;;7.60;4.40;;;20.00;99.90;;;;;;5041748;28;20545;-50
2021/09/16 13:07:31;;;;;;;2.13;1.30;;;19.90;99.90;;;;;;5036400;28;20828;-50
2021/09/16 13:10:13;;;;;;;3.40;1.13;;;19.90;99.90;;;;;;5035421;28;20518;-46
2021/09/16 13:12:41;;;;;;;3.23;0.90;;;20.20;99.90;;;;;;5035768;28;20812;-47
2021/09/16 13:15:10;;;;;;;3.80;1.03;;;20.40;99.90;;;;;;5035810;28;20444;-48
2021/09/16 13:17:37;;;;;;;1.73;1.03;;;20.60;99.90;;;;;;5036814;28;20754;-46
2021/09/16 13:20:07;;;;;;;1.63;1.30;;;20.70;99.90;;;;;;5036067;28;20509;-50
2021/09/16 13:22:33;;;;;;;1.60;1.20;;;20.90;99.90;;;;;;5036825;28;20492;-50
2021/09/16 13:25:00;;;;;;;4.17;1.40;;;21.00;99.90;;;;;;5036473;28;20506;-53
2021/09/16 13:27:27;;;;;;;1.20;1.10;;;21.00;99.90;;;;;;5036687;28;20448;-48
2021/09/16 13:29:54;;;;;;;4.03;1.27;;;21.10;99.90;;;;;;5036494;28;20803;-44
2021/09/16 13:32:20;;;;;;;2.97;1.23;;;21.00;99.90;;;;;;5035703;28;20986;-49
2021/09/16 13:34:47;;;;;;;1.87;1.30;;;20.90;99.90;;;;;;5036443;28;20464;-52
2021/09/16 13:37:15;;;;;;;1.53;1.20;;;20.90;99.90;;;;;;5036172;28;20479;-50
2021/09/16 13:39:42;;;;;;;1.30;1.20;;;20.90;99.90;;;;;;5037431;28;20510;-46
2021/09/16 13:42:09;;;;;;;1.60;1.20;;;20.90;99.90;;;;;;5035988;28;20491;-51
2021/09/16 13:44:35;;;;;;;1.60;1.47;;;20.90;99.90;;;;;;5035485;28;20460;-46
2021/09/16 13:47:02;;;;;;;2.47;1.20;;;20.80;99.90;;;;;;5035788;28;20921;-48
2021/09/16 13:49:29;;;;;;;1.50;1.20;;;20.70;99.90;;;;;;5035873;28;20483;-48
2021/09/16 13:51:56;;;;;;;1.70;1.10;;;20.60;99.90;;;;;;5036392;28;20526;-47
2021/09/16 13:54:24;;;;;;;2.20;1.33;;;20.40;99.90;;;;;;5036718;28;20829;-46
2021/09/16 13:56:51;;;;;;;4.57;1.10;;;20.40;99.90;;;;;;5035813;28;20444;-45
2021/09/16 13:59:17;;;;;;;2.30;1.10;;;20.30;99.90;;;;;;5036303;28;20448;-50
2021/09/16 14:01:44;;;;;;;3.17;1.77;;;20.20;99.90;;;;;;5035741;28;20483;-47
2021/09/16 14:04:11;;;;;;;3.63;2.00;;;20.20;99.90;;;;;;5036096;28;20459;-46
2021/09/16 14:06:37;;;;;;;3.27;1.63;;;20.20;99.90;;;;;;5035644;28;20780;-45
2021/09/16 14:09:04;;;;;;;2.30;1.50;;;20.10;99.90;;;;;;5035962;28;20832;-51
2021/09/16 14:11:33;;;;;;;1.80;1.23;;;20.10;99.90;;;;;;5035849;28;21019;-47
2021/09/16 14:14:00;;;;;;;2.00;1.53;;;20.10;99.90;;;;;;5035708;28;20514;-44
2021/09/16 14:16:27;;;;;;;2.43;1.17;;;20.00;99.90;;;;;;5036219;28;20522;-47
2021/09/16 14:18:53;;;;;;;3.50;1.20;;;20.00;99.90;;;;;;5035775;28;20456;-47
2021/09/16 14:21:20;;;;;;;1.77;1.13;;;20.00;99.90;;;;;;5036030;28;20493;-54
2021/09/16 14:23:47;;;;;;;2.17;1.10;;;20.00;99.90;;;;;;5036248;28;20480;-52
2021/09/16 14:26:14;;;;;;;2.33;1.53;;;20.00;99.90;;;;;;5037470;28;20456;-46
2021/09/16 14:28:42;;;;;;;3.20;1.70;;;20.00;99.90;;;;;;5036289;28;20452;-50
2021/09/16 14:31:09;;;;;;;2.27;1.40;;;19.90;99.90;;;;;;5035605;28;20510;-49
2021/09/16 14:33:35;;;;;;;5.67;3.93;;;19.90;99.90;;;;;;5035766;28;20913;-48
2021/09/16 14:36:02;;;;;;;7.63;3.30;;;19.90;99.90;;;;;;5035470;28;20518;-46
2021/09/16 14:38:29;;;;;;;2.53;1.63;;;19.90;99.90;;;;;;5035953;28;20456;-47